createdAt,value
2023-02-11T00:02:09.109Z,101154.00
2023-02-11T00:07:12.855Z,101153.06
2023-02-11T00:12:19.503Z,101146.63
2023-02-11T00:17:22.287Z,101148.72
2023-02-11T00:22:24.980Z,101140.75
2023-02-11T00:27:29.065Z,101134.00
2023-02-11T00:32:31.754Z,101126.41
2023-02-11T00:37:36.368Z,101116.84
2023-02-11T00:42:40.692Z,101113.78
2023-02-11T00:47:43.328Z,101104.50
2023-02-11T00:52:45.969Z,101103.94
2023-02-11T00:57:50.160Z,101105.06
2023-02-11T01:02:52.890Z,101115.53
2023-02-11T01:07:55.600Z,101123.16
2023-02-11T01:12:59.907Z,101112.91
2023-02-11T01:18:02.573Z,101107.97
2023-02-11T01:23:05.311Z,101103.94
2023-02-11T01:28:16.073Z,101105.06
2023-02-11T01:33:18.896Z,101116.19
2023-02-11T01:38:23.135Z,101128.16
2023-02-11T01:43:29.915Z,101132.00
2023-02-11T01:48:36.854Z,101121.56
2023-02-11T01:53:57.358Z,101110.31
2023-02-11T01:59:05.942Z,101114.25
2023-02-11T02:04:09.214Z,101117.22
2023-02-11T02:09:17.644Z,101116.81
2023-02-11T02:14:22.241Z,101123.16
2023-02-11T02:19:51.120Z,101125.25
2023-02-11T02:25:19.628Z,101113.16
2023-02-11T02:30:52.948Z,101102.91
2023-02-11T02:36:07.118Z,101075.72
2023-02-11T02:41:11.714Z,101090.09
2023-02-11T02:46:16.300Z,101079.53
2023-02-11T02:51:31.882Z,101072.78
2023-02-11T02:56:38.796Z,101069.81
2023-02-11T03:01:51.126Z,101078.84
2023-02-11T03:06:58.961Z,101078.25
2023-02-11T03:12:03.205Z,101069.56
2023-02-11T03:17:07.219Z,101077.72
2023-02-11T03:22:14.516Z,101078.13
2023-02-11T03:27:21.783Z,101063.22
2023-02-11T03:32:27.929Z,101057.19
2023-02-11T03:37:33.672Z,101050.16
2023-02-11T03:42:38.444Z,101070.81
2023-02-11T03:47:44.627Z,101070.41
2023-02-11T03:52:50.401Z,101075.75
2023-02-11T03:57:53.194Z,101069.84
2023-02-11T04:02:55.892Z,101067.31
2023-02-11T04:08:00.027Z,101053.53
2023-02-11T04:13:02.652Z,101058.88
2023-02-11T04:18:05.510Z,101056.66
2023-02-11T04:23:10.107Z,101052.25
2023-02-11T04:28:12.735Z,101044.53
2023-02-11T04:33:15.360Z,101038.66
2023-02-11T04:38:19.340Z,101036.22
2023-02-11T04:43:21.970Z,101041.72
2023-02-11T04:48:24.662Z,101043.56
2023-02-11T04:53:28.699Z,101037.50
2023-02-11T04:58:31.456Z,101052.94
2023-02-11T05:03:34.070Z,101063.91
2023-02-11T05:08:38.070Z,101052.41
2023-02-11T05:13:40.747Z,101042.00
2023-02-11T05:18:44.366Z,101040.31
2023-02-11T05:23:48.679Z,101036.78
2023-02-11T05:28:51.388Z,101054.91
2023-02-11T05:33:54.089Z,101048.88
2023-02-11T05:38:58.129Z,101049.88
2023-02-11T05:44:00.850Z,101037.63
2023-02-11T05:49:03.946Z,101032.41
2023-02-11T05:54:08.044Z,101024.56
2023-02-11T05:59:10.803Z,101028.19
2023-02-11T06:04:13.659Z,101025.81
2023-02-11T06:09:17.650Z,101022.31
2023-02-11T06:14:20.894Z,101026.94
2023-02-11T06:19:23.590Z,101029.75
2023-02-11T06:24:48.073Z,101030.88
2023-02-11T06:29:52.335Z,101026.50
2023-02-11T06:34:55.048Z,101032.00
2023-02-11T06:39:59.036Z,101040.84
2023-02-11T06:45:01.690Z,101043.78
2023-02-11T06:50:04.659Z,101047.41
2023-02-11T06:55:09.228Z,101048.53
2023-02-11T07:00:13.447Z,101040.53
2023-02-11T07:05:16.127Z,101043.34
2023-02-11T07:10:20.361Z,101052.31
2023-02-11T07:15:22.957Z,101048.94
2023-02-11T07:20:26.327Z,101057.94
2023-02-11T07:25:30.340Z,101064.94
2023-02-11T07:30:33.056Z,101077.72
2023-02-11T07:35:35.722Z,101068.88
2023-02-11T07:40:39.715Z,101072.50
2023-02-11T07:45:42.368Z,101070.84
2023-02-11T07:50:45.007Z,101073.50
2023-02-11T07:55:49.386Z,101091.34
2023-02-11T08:00:52.523Z,101096.78
2023-02-11T08:05:55.179Z,101096.91
2023-02-11T08:10:59.198Z,101094.13
2023-02-11T08:16:01.958Z,101082.88
2023-02-11T08:21:05.892Z,101092.69
2023-02-11T08:26:11.851Z,101092.69
2023-02-11T08:31:16.598Z,101091.84
2023-02-11T08:36:21.487Z,101089.31
2023-02-11T08:41:25.538Z,101099.97
2023-02-11T08:46:28.236Z,101101.81
2023-02-11T08:51:31.509Z,101108.97
2023-02-11T08:56:35.703Z,101121.59
2023-02-11T09:01:38.389Z,101119.88
2023-02-11T09:06:41.596Z,101122.72
2023-02-11T09:11:46.688Z,101133.22
2023-02-11T09:16:49.852Z,101142.22
2023-02-11T09:21:52.535Z,101155.56
2023-02-11T09:26:56.598Z,101152.03
2023-02-11T09:31:59.289Z,101148.53
2023-02-11T09:37:02.600Z,101151.22
2023-02-11T09:42:35.728Z,101162.72
2023-02-11T09:47:47.134Z,101154.72
2023-02-11T09:52:55.413Z,101163.69
2023-02-11T09:58:43.773Z,101174.22
2023-02-11T10:04:44.523Z,101178.56
2023-02-11T10:10:08.559Z,101178.56
2023-02-11T10:40:45.613Z,101192.50
2023-02-11T10:45:50.355Z,101196.03
2023-02-11T10:51:08.725Z,101194.06
2023-02-11T10:56:29.597Z,101199.25
2023-02-11T11:01:41.759Z,101196.59
2023-02-11T11:13:25.521Z,101205.59
2023-02-11T11:18:28.333Z,101193.06
2023-02-11T11:29:04.041Z,101185.06
2023-02-11T11:34:20.253Z,101192.09
2023-02-11T11:39:25.289Z,101192.97
2023-02-11T11:44:31.933Z,101193.81
2023-02-11T11:49:37.667Z,101190.41
2023-02-11T11:54:41.350Z,101193.06
2023-02-11T11:59:45.699Z,101196.59
2023-02-11T12:05:00.178Z,101185.06
2023-02-11T12:10:22.289Z,101185.91
2023-02-11T12:15:33.675Z,101186.75
2023-02-11T12:20:41.412Z,101180.56
2023-02-11T12:25:49.868Z,101175.25
2023-02-11T12:31:06.303Z,101175.25
2023-02-11T12:36:14.299Z,101171.94
2023-02-11T12:41:42.307Z,101178.84
2023-02-11T12:46:50.949Z,101184.31
2023-02-11T12:52:04.287Z,101177.28
2023-02-11T12:57:11.155Z,101167.44
2023-02-11T13:02:22.142Z,101164.56
2023-02-11T13:07:29.292Z,101167.66
2023-02-11T13:12:50.973Z,101169.63
2023-02-11T13:18:01.008Z,101164.28
2023-02-11T13:23:10.125Z,101161.72
2023-02-11T13:28:32.531Z,101156.41
2023-02-11T13:33:39.496Z,101169.88
2023-02-11T13:38:42.460Z,101165.66
2023-02-11T13:43:45.481Z,101162.00
2023-02-11T13:48:52.584Z,101158.59
2023-02-11T13:53:57.531Z,101154.38
2023-02-11T13:59:02.302Z,101164.22
2023-02-11T14:04:40.304Z,101167.88
2023-02-11T14:09:43.116Z,101171.38
2023-02-11T14:15:18.476Z,101171.50
2023-02-11T14:20:43.988Z,101167.25
2023-02-11T14:25:54.915Z,101159.28
2023-02-11T14:31:03.813Z,101162.94
2023-02-11T14:36:16.820Z,101168.25
2023-02-11T14:41:23.084Z,101175.53
2023-02-11T14:46:32.728Z,101171.19
2023-02-11T14:51:39.815Z,101173.97
2023-02-11T14:56:44.420Z,101181.97
2023-02-11T15:01:49.503Z,101187.47
2023-02-11T15:06:54.518Z,101181.25
2023-02-11T15:11:57.660Z,101180.41
2023-02-11T15:17:09.552Z,101182.34
2023-02-11T15:22:21.269Z,101181.78
2023-02-11T15:27:28.821Z,101200.34
2023-02-11T15:32:31.523Z,101204.78
2023-02-11T15:37:38.137Z,101209.28
2023-02-11T15:42:52.520Z,101207.59
2023-02-11T15:47:58.878Z,101212.94
2023-02-11T15:53:07.039Z,101209.56
2023-02-11T15:58:10.149Z,101217.66
2023-02-11T16:03:21.006Z,101213.22
2023-02-11T16:08:26.913Z,101208.00
2023-02-11T16:13:55.305Z,101213.22
2023-02-11T16:19:04.860Z,101217.81
2023-02-11T16:24:19.923Z,101218.78
2023-02-11T16:29:26.265Z,101226.91
2023-02-11T16:34:29.047Z,101229.59
2023-02-11T16:39:33.367Z,101222.53
2023-02-11T16:44:36.641Z,101244.84
2023-02-11T16:49:42.550Z,101245.84
2023-02-11T16:54:46.689Z,101245.97
2023-02-11T16:59:49.750Z,101244.28
2023-02-11T17:04:53.480Z,101253.22
2023-02-11T17:09:57.722Z,101255.91
2023-02-11T17:15:00.389Z,101262.22
2023-02-11T17:20:03.137Z,101266.69
2023-02-11T17:25:07.495Z,101271.16
2023-02-11T17:30:11.596Z,101272.16
2023-02-11T17:35:14.321Z,101269.47
2023-02-11T17:40:18.668Z,101273.25
2023-02-11T17:45:22.459Z,101275.78
2023-02-11T17:50:27.594Z,101280.41
2023-02-11T17:55:43.031Z,101291.06
2023-02-11T18:00:46.306Z,101289.38
2023-02-11T18:05:49.208Z,101294.72
2023-02-11T18:10:53.455Z,101299.16
2023-02-11T18:15:56.506Z,101301.97
2023-02-11T18:20:59.936Z,101301.97
2023-02-11T18:26:04.165Z,101317.97
2023-02-11T18:31:08.503Z,101325.13
2023-02-11T18:36:21.373Z,101315.41
2023-02-11T18:41:25.451Z,101321.59
2023-02-11T18:46:28.630Z,101330.56
2023-02-11T18:51:32.444Z,101323.56
2023-02-11T18:56:36.944Z,101323.56
2023-02-11T19:01:43.172Z,101321.00
2023-02-11T19:06:48.481Z,101325.50
2023-02-11T19:11:54.038Z,101346.81
2023-02-11T19:16:58.030Z,101343.44
2023-02-11T19:22:02.255Z,101345.09
2023-02-11T19:27:06.555Z,101351.41
2023-02-11T19:32:09.391Z,101352.41
2023-02-11T19:37:13.162Z,101341.00
2023-02-11T19:42:17.216Z,101338.34
2023-02-11T19:47:26.648Z,101346.44
2023-02-11T19:52:29.305Z,101350.84
2023-02-11T19:57:33.395Z,101352.63
2023-02-11T20:02:38.480Z,101373.94
2023-02-11T20:07:41.256Z,101367.66
2023-02-11T20:12:45.261Z,101356.28
2023-02-11T20:17:48.017Z,101354.59
2023-02-11T20:22:52.322Z,101361.59
2023-02-11T20:27:56.441Z,101373.25
2023-02-11T20:32:59.434Z,101381.25
2023-02-11T20:38:02.910Z,101375.19
2023-02-11T20:43:06.946Z,101379.53
2023-02-11T20:48:44.626Z,101384.00
2023-02-11T20:53:49.889Z,101396.59
2023-02-11T20:58:54.123Z,101401.00
2023-02-11T21:03:58.117Z,101400.13
2023-02-11T21:09:00.838Z,101390.44
2023-02-11T21:14:04.933Z,101402.78
2023-02-11T21:19:07.891Z,101400.25
2023-02-11T21:24:19.616Z,101406.44
2023-02-11T21:29:23.637Z,101398.53
2023-02-11T21:34:26.320Z,101417.19
2023-02-11T21:39:29.110Z,101423.50
2023-02-11T21:44:33.093Z,101416.50
2023-02-11T21:49:35.747Z,101422.66
2023-02-11T21:54:38.438Z,101417.44
2023-02-11T21:59:42.753Z,101420.00
2023-02-11T22:04:45.436Z,101432.59
2023-02-11T22:09:48.797Z,101438.91
2023-02-11T22:14:52.731Z,101417.69
2023-02-11T22:19:56.654Z,101429.09
2023-02-11T22:24:59.992Z,101422.06
2023-02-11T22:30:04.708Z,101420.34
2023-02-11T22:35:07.716Z,101422.06
2023-02-11T22:40:11.293Z,101416.00
2023-02-11T22:45:21.549Z,101430.16
2023-02-11T22:50:24.220Z,101420.50
2023-02-11T22:55:27.484Z,101430.28
2023-02-11T23:00:32.560Z,101436.47
2023-02-11T23:05:38.918Z,101451.59
2023-02-11T23:10:41.652Z,101448.94
2023-02-11T23:15:46.725Z,101455.25
2023-02-11T23:20:49.472Z,101454.41
2023-02-11T23:25:52.142Z,101453.56
2023-02-11T23:30:56.300Z,101459.00
2023-02-11T23:35:58.971Z,101466.13
2023-02-11T23:41:01.642Z,101458.16
2023-02-11T23:46:06.482Z,101470.63
2023-02-11T23:51:10.156Z,101468.06
2023-02-11T23:56:15.794Z,101470.72
